LZIB/BTS METAR and TAF weather

Enter ICAO airport designator
Station Type Date Time Source
LZIB METAR 2019/11/18 09:00 UTC NOAA

LZIB 180900Z 12010KT 9999 -RA FEW010 BKN018 12/10 Q1009 NOSIG


Station Type Date Time Source
LZIB Decoded METAR 2019/11/18 09:00 UTC NOAA

Bratislava Ivanka, Slovakia (LZIB) 48-12N 017-12E 142M
Nov 18, 2019 - 04:00 AM EST / 2019.11.18 0900 UTC
Wind: from the ESE (120 degrees) at 12 MPH (10 KT):0
Visibility: greater than 7 mile(s):0
Sky conditions: mostly cloudy
Weather: light rain
Temperature: 53 F (12 C)
Dew Point: 50 F (10 C)
Relative Humidity: 87%
Pressure (altimeter): 29.80 in. Hg (1009 hPa)
ob: LZIB 180900Z 12010KT 9999 -RA FEW010 BKN018 12/10 Q1009 NOSIG
cycle: 9

Station Type Date Time Source
LZIB TAF 2019/11/18 06:59 UTC NOAA

TAF LZIB 180500Z 1806/1906 11014KT 9999 FEW010 BKN014
TEMPO 1806/1814 13018G28KT
BECMG 1808/1810 -RA SCT015 BKN040
BECMG 1814/1816 21007KT NSW SCT038 SCT100
BECMG 1820/1822 10005KT PROB40
TEMPO 1822/1906 VRB02KT 2100 BCFG SCT004

Example: see airport list